createdAt,value
2019-04-04T00:00:42.386Z,278.25
2019-04-04T00:02:11.905Z,278.24
2019-04-04T00:03:40.625Z,278.21
2019-04-04T00:05:11.665Z,278.22
2019-04-04T00:06:41.265Z,278.25
2019-04-04T00:08:09.985Z,278.27
2019-04-04T00:09:39.667Z,278.29
2019-04-04T00:11:10.867Z,278.29
2019-04-04T00:12:39.684Z,278.29
2019-04-04T00:14:08.543Z,278.29
2019-04-04T00:15:37.264Z,278.26
2019-04-04T00:17:05.987Z,278.21
2019-04-04T00:18:34.865Z,278.18
2019-04-04T00:20:05.745Z,278.18
2019-04-04T00:21:34.608Z,278.21
2019-04-04T00:23:04.975Z,278.23
2019-04-04T00:24:36.225Z,278.21
2019-04-04T00:26:05.030Z,278.21
2019-04-04T00:27:33.746Z,278.2
2019-04-04T00:29:02.468Z,278.18
2019-04-04T00:30:32.147Z,278.15
2019-04-04T00:32:01.028Z,278.13
2019-04-04T00:33:30.713Z,278.11
2019-04-04T00:34:59.770Z,278.1
2019-04-04T00:36:29.428Z,278.08
2019-04-04T00:37:58.146Z,278.06
2019-04-04T00:39:27.345Z,278.04
2019-04-04T00:40:56.063Z,278.04
2019-04-04T00:42:25.345Z,278.03
2019-04-04T00:43:56.545Z,277.99
2019-04-04T00:45:28.583Z,277.97
2019-04-04T00:46:58.307Z,277.96
2019-04-04T00:48:27.590Z,278.01
2019-04-04T00:49:56.468Z,278.05
2019-04-04T00:51:25.188Z,278.07
2019-04-04T00:52:55.353Z,278.11
2019-04-04T00:54:24.310Z,278.11
2019-04-04T00:55:53.053Z,278.1
2019-04-04T00:57:23.753Z,278.08
2019-04-04T00:58:52.561Z,278.04
2019-04-04T01:00:21.981Z,278.01
2019-04-04T01:01:55.019Z,277.98
2019-04-04T01:03:28.054Z,277.95
2019-04-04T01:05:01.233Z,277.94
2019-04-04T01:06:31.846Z,277.92
2019-04-04T01:08:03.113Z,277.92
2019-04-04T01:09:34.392Z,277.9
2019-04-04T01:11:03.114Z,277.86
2019-04-04T01:12:31.995Z,277.82
2019-04-04T01:14:03.271Z,277.78
2019-04-04T01:15:32.073Z,277.75
2019-04-04T01:17:02.019Z,277.74
2019-04-04T01:18:34.954Z,277.75
2019-04-04T01:20:08.472Z,277.76
2019-04-04T01:21:39.275Z,277.84
2019-04-04T01:23:07.988Z,277.96
2019-04-04T01:24:36.711Z,278.05
2019-04-04T01:26:08.228Z,277.96
2019-04-04T01:27:37.639Z,277.88
2019-04-04T01:29:10.022Z,277.84
2019-04-04T01:30:41.635Z,277.8
2019-04-04T01:32:12.868Z,277.74
2019-04-04T01:33:41.586Z,277.75
2019-04-04T01:35:10.307Z,277.79
2019-04-04T01:36:39.030Z,277.86
2019-04-04T01:38:07.747Z,277.91
2019-04-04T01:39:37.035Z,277.85
2019-04-04T01:41:09.265Z,277.82
2019-04-04T01:42:38.791Z,277.78
2019-04-04T01:44:11.215Z,277.8
2019-04-04T01:45:43.645Z,277.8
2019-04-04T01:47:14.935Z,277.76
2019-04-04T01:48:47.996Z,277.71
2019-04-04T01:50:22.434Z,277.66
2019-04-04T01:51:52.145Z,277.66
2019-04-04T01:53:22.866Z,277.66
2019-04-04T01:54:53.026Z,277.77
2019-04-04T01:56:21.824Z,277.88
2019-04-04T01:57:50.563Z,277.86
2019-04-04T01:59:19.345Z,277.77
2019-04-04T02:00:51.520Z,277.72
2019-04-04T02:02:22.960Z,277.69
2019-04-04T02:03:53.621Z,277.65
2019-04-04T02:05:26.686Z,277.63
2019-04-04T02:06:58.786Z,277.62
2019-04-04T02:08:31.289Z,277.59
2019-04-04T02:10:00.865Z,277.54
2019-04-04T02:11:30.144Z,277.52
2019-04-04T02:12:58.867Z,277.52
2019-04-04T02:14:27.587Z,277.49
2019-04-04T02:15:59.107Z,277.44
2019-04-04T02:17:28.707Z,277.42
2019-04-04T02:18:59.592Z,277.43
2019-04-04T02:20:31.668Z,277.38
2019-04-04T02:22:00.427Z,277.34
2019-04-04T02:23:31.353Z,277.3
2019-04-04T02:25:03.024Z,277.3
2019-04-04T02:26:34.071Z,277.3
2019-04-04T02:28:06.881Z,277.31
2019-04-04T02:29:39.843Z,277.26
2019-04-04T02:31:11.268Z,277.2
2019-04-04T02:32:39.986Z,277.14
2019-04-04T02:34:11.346Z,277.08
2019-04-04T02:35:42.689Z,277.02
2019-04-04T02:37:12.788Z,276.96
2019-04-04T02:38:41.667Z,276.9
2019-04-04T02:40:13.507Z,276.85
2019-04-04T02:41:42.226Z,276.8
2019-04-04T02:43:11.907Z,276.76
2019-04-04T02:44:40.708Z,276.7
2019-04-04T02:46:11.446Z,276.63
2019-04-04T02:47:41.277Z,276.62
2019-04-04T02:49:10.067Z,276.64
2019-04-04T02:50:40.707Z,276.67
2019-04-04T02:52:12.776Z,276.7
2019-04-04T02:53:43.987Z,276.71
2019-04-04T02:55:12.707Z,276.66
2019-04-04T02:56:41.587Z,276.61
2019-04-04T02:58:14.227Z,276.59
2019-04-04T02:59:44.230Z,276.59
2019-04-04T03:01:12.945Z,276.59
2019-04-04T03:02:42.065Z,276.63
2019-04-04T03:04:13.457Z,276.66
2019-04-04T03:05:45.024Z,276.65
2019-04-04T03:07:13.905Z,276.65
2019-04-04T03:08:43.024Z,276.72
2019-04-04T03:10:15.570Z,276.73
2019-04-04T03:11:45.722Z,276.72
2019-04-04T03:13:15.505Z,276.66
2019-04-04T03:14:44.224Z,276.58
2019-04-04T03:16:14.704Z,276.54
2019-04-04T03:17:43.424Z,276.54
2019-04-04T03:19:15.027Z,276.59
2019-04-04T03:20:43.826Z,276.56
2019-04-04T03:22:12.544Z,276.53
2019-04-04T03:23:41.275Z,276.56
2019-04-04T03:25:14.087Z,276.58
2019-04-04T03:26:45.426Z,276.58
2019-04-04T03:28:15.105Z,276.56
2019-04-04T03:29:43.899Z,276.55
2019-04-04T03:31:12.626Z,276.55
2019-04-04T03:32:41.514Z,276.56
2019-04-04T03:34:16.868Z,276.57
2019-04-04T03:35:46.624Z,276.57
2019-04-04T03:37:17.426Z,276.57
2019-04-04T03:38:47.010Z,276.52
2019-04-04T03:40:16.310Z,276.5
2019-04-04T03:41:45.044Z,276.49
2019-04-04T03:43:16.073Z,276.44
2019-04-04T03:44:45.834Z,276.42
2019-04-04T03:46:14.705Z,276.4
2019-04-04T03:47:48.545Z,276.37
2019-04-04T03:49:18.230Z,276.35
2019-04-04T03:50:48.787Z,276.37
2019-04-04T03:52:17.510Z,276.4
2019-04-04T03:53:48.631Z,276.38
2019-04-04T03:55:19.109Z,276.35
2019-04-04T03:56:47.825Z,276.35
2019-04-04T03:58:16.631Z,276.36
2019-04-04T03:59:45.987Z,276.38
2019-04-04T04:01:18.228Z,276.39
2019-04-04T04:02:49.621Z,276.37
2019-04-04T04:04:19.670Z,276.34
2019-04-04T04:05:48.472Z,276.32
2019-04-04T04:07:20.228Z,276.27
2019-04-04T04:08:53.410Z,276.24
2019-04-04T04:10:25.042Z,276.29
2019-04-04T04:11:53.831Z,276.38
2019-04-04T04:13:22.705Z,276.4
2019-04-04T04:14:54.724Z,276.38
2019-04-04T04:16:24.149Z,276.36
2019-04-04T04:17:52.949Z,276.33
2019-04-04T04:19:24.119Z,276.29
2019-04-04T04:21:00.146Z,276.25
2019-04-04T04:22:28.869Z,276.24
2019-04-04T04:24:01.508Z,276.24
2019-04-04T04:25:30.247Z,276.26
2019-04-04T04:27:05.588Z,276.27
2019-04-04T04:28:34.628Z,276.28
2019-04-04T04:30:07.844Z,276.28
2019-04-04T04:31:36.710Z,276.33
2019-04-04T04:33:05.428Z,276.4
2019-04-04T04:34:38.305Z,276.44
2019-04-04T04:36:09.668Z,276.46
2019-04-04T04:37:44.465Z,276.46
2019-04-04T04:39:13.266Z,276.47
2019-04-04T04:40:46.800Z,276.48
2019-04-04T04:42:16.949Z,276.43
2019-04-04T04:43:46.791Z,276.37
2019-04-04T04:45:17.588Z,276.32
2019-04-04T04:46:49.670Z,276.3
2019-04-04T04:48:20.636Z,276.3
2019-04-04T04:49:49.832Z,276.3
2019-04-04T04:51:18.551Z,276.29
2019-04-04T04:52:51.671Z,276.29
2019-04-04T04:54:22.702Z,276.3
2019-04-04T04:55:52.392Z,276.3
2019-04-04T04:57:37.004Z,276.27
2019-04-04T04:59:08.952Z,276.23
2019-04-04T05:00:37.677Z,276.22
2019-04-04T05:02:07.111Z,276.25
2019-04-04T05:03:35.834Z,276.28
2019-04-04T05:05:05.039Z,276.29
2019-04-04T05:06:35.588Z,276.28
2019-04-04T05:08:05.922Z,276.29
2019-04-04T05:09:35.591Z,276.3
2019-04-04T05:11:05.196Z,276.32
2019-04-04T05:12:33.915Z,276.34
2019-04-04T05:14:03.935Z,276.37
2019-04-04T05:15:33.170Z,276.4
2019-04-04T05:17:03.756Z,276.44
2019-04-04T05:18:33.352Z,276.47
2019-04-04T05:20:02.153Z,276.47
2019-04-04T05:21:34.527Z,276.48
2019-04-04T05:23:04.071Z,276.45
2019-04-04T05:24:32.870Z,276.42
2019-04-04T05:26:03.044Z,276.37
2019-04-04T05:27:32.150Z,276.38
2019-04-04T05:29:02.235Z,276.4
2019-04-04T05:30:31.429Z,276.39
2019-04-04T05:32:01.353Z,276.41
2019-04-04T05:33:32.948Z,276.43
2019-04-04T05:35:05.991Z,276.46
2019-04-04T05:36:36.724Z,276.49
2019-04-04T05:38:07.684Z,276.5
2019-04-04T05:39:37.788Z,276.51
2019-04-04T05:41:07.529Z,276.49
2019-04-04T05:42:38.573Z,276.51
2019-04-04T05:44:10.196Z,276.61
2019-04-04T05:45:39.350Z,276.64
2019-04-04T05:47:08.154Z,276.62
2019-04-04T05:48:39.587Z,276.61
2019-04-04T05:50:10.888Z,276.74
2019-04-04T05:51:41.346Z,276.92
2019-04-04T05:53:11.669Z,277.01
2019-04-04T05:54:43.827Z,276.93
2019-04-04T05:56:15.140Z,276.86
2019-04-04T05:57:45.344Z,276.91
2019-04-04T05:59:14.946Z,277.06
2019-04-04T06:00:43.751Z,277.17
2019-04-04T06:02:16.399Z,277.21
2019-04-04T06:03:47.746Z,277.14
2019-04-04T06:05:17.266Z,277.14
2019-04-04T06:06:45.988Z,277.02
2019-04-04T06:08:14.783Z,277
2019-04-04T06:09:45.975Z,277.01
2019-04-04T06:11:15.922Z,276.98
2019-04-04T06:12:44.704Z,276.95
2019-04-04T06:14:14.462Z,276.92
2019-04-04T06:15:43.588Z,276.85
2019-04-04T06:17:12.966Z,276.8
2019-04-04T06:18:42.964Z,276.74
2019-04-04T06:20:12.987Z,276.84
2019-04-04T06:21:45.263Z,276.97
2019-04-04T06:23:13.983Z,277.09
2019-04-04T06:24:42.784Z,277.2
2019-04-04T06:26:12.786Z,277.25
2019-04-04T06:27:45.184Z,277.15
2019-04-04T06:29:15.105Z,277.03
2019-04-04T06:30:48.704Z,276.98
2019-04-04T06:32:17.757Z,277.09
2019-04-04T06:33:46.550Z,277.04
2019-04-04T06:35:16.153Z,277.05
2019-04-04T06:36:45.027Z,277.05
2019-04-04T06:38:13.845Z,277.06
2019-04-04T06:39:42.707Z,276.98
2019-04-04T06:41:12.198Z,276.98
2019-04-04T06:42:42.190Z,277.09
2019-04-04T06:44:12.976Z,277.15
2019-04-04T06:45:46.126Z,277.12
2019-04-04T06:47:16.514Z,277.11
2019-04-04T06:48:46.786Z,277.13
2019-04-04T06:50:15.995Z,277
2019-04-04T06:51:46.387Z,277
2019-04-04T06:53:16.146Z,277.03
2019-04-04T06:54:44.869Z,277.06
2019-04-04T06:56:14.468Z,277.04
2019-04-04T06:57:44.147Z,277.03
2019-04-04T06:59:16.388Z,277.05
2019-04-04T07:00:49.683Z,277.08
2019-04-04T07:02:19.122Z,277.08
2019-04-04T07:03:48.069Z,277.19
2019-04-04T07:05:16.792Z,277.29
2019-04-04T07:06:47.347Z,277.25
2019-04-04T07:08:16.080Z,277.25
2019-04-04T07:09:44.958Z,277.18
2019-04-04T07:11:25.917Z,277.23
2019-04-04T07:13:06.185Z,277.28
2019-04-04T07:14:51.359Z,277.28
2019-04-04T07:16:22.870Z,277.34
2019-04-04T07:17:52.468Z,277.36
2019-04-04T07:19:21.190Z,277.31
2019-04-04T07:20:53.191Z,277.45
2019-04-04T07:22:24.438Z,277.56
2019-04-04T07:23:58.891Z,277.57
2019-04-04T07:25:29.759Z,277.52
2019-04-04T07:26:58.475Z,277.56
2019-04-04T07:28:30.544Z,277.62
2019-04-04T07:30:01.911Z,277.71
2019-04-04T07:31:33.494Z,277.8
2019-04-04T07:33:07.270Z,277.87
2019-04-04T07:34:36.228Z,277.94
2019-04-04T07:36:05.028Z,278.03
2019-04-04T07:37:33.744Z,277.98
2019-04-04T07:39:12.211Z,277.94
2019-04-04T07:42:47.264Z,277.94
2019-04-04T07:44:18.710Z,277.95
2019-04-04T07:45:47.515Z,278.05
2019-04-04T07:47:16.875Z,278.14
2019-04-04T07:48:45.915Z,278.19
2019-04-04T07:50:15.345Z,278.17
2019-04-04T07:51:44.952Z,278.21
2019-04-04T07:53:13.749Z,278.22
2019-04-04T07:54:44.069Z,278.26
2019-04-04T07:56:14.217Z,278.34
2019-04-04T07:57:43.753Z,278.29
2019-04-04T07:59:14.313Z,278.29
2019-04-04T08:00:43.446Z,278.26
2019-04-04T08:02:12.224Z,278.21
2019-04-04T08:03:41.988Z,278.21
2019-04-04T08:05:13.115Z,278.22
2019-04-04T08:06:44.151Z,278.24
2019-04-04T08:08:13.826Z,278.19
2019-04-04T08:09:42.560Z,278.19
2019-04-04T08:11:13.284Z,278.23
2019-04-04T08:12:42.385Z,278.27
2019-04-04T08:14:11.182Z,278.29
2019-04-04T08:15:41.104Z,278.2
2019-04-04T08:17:09.831Z,278.27
2019-04-04T08:18:38.634Z,278.36
2019-04-04T08:20:07.426Z,278.33
2019-04-04T08:21:36.159Z,278.33
2019-04-04T08:23:04.989Z,278.31
2019-04-04T08:24:33.828Z,278.29
2019-04-04T08:26:02.543Z,278.27
2019-04-04T08:27:32.222Z,278.3
2019-04-04T08:29:01.024Z,278.3
2019-04-04T08:30:29.905Z,278.31
2019-04-04T08:31:58.783Z,278.35
2019-04-04T08:33:27.594Z,278.41
2019-04-04T08:35:03.430Z,278.4
2019-04-04T08:36:34.364Z,278.46
2019-04-04T08:38:05.186Z,278.51
2019-04-04T08:39:34.874Z,278.53
2019-04-04T08:41:03.667Z,278.49
2019-04-04T08:42:32.463Z,278.49
2019-04-04T08:44:01.988Z,278.52
2019-04-04T08:45:30.785Z,278.53
2019-04-04T08:47:00.793Z,278.56
2019-04-04T08:48:29.592Z,278.58
2019-04-04T08:50:00.069Z,278.6
2019-04-04T08:51:29.745Z,278.58
2019-04-04T08:52:58.462Z,278.55
2019-04-04T08:54:27.267Z,278.51
2019-04-04T08:55:56.070Z,278.47
2019-04-04T08:57:24.791Z,278.42
2019-04-04T08:58:56.717Z,278.4
2019-04-04T09:00:35.167Z,278.42
2019-04-04T09:02:03.996Z,278.43
2019-04-04T09:03:32.797Z,278.47
2019-04-04T09:05:11.111Z,278.52
2019-04-04T09:06:42.869Z,278.53
2019-04-04T09:08:12.858Z,278.56
2019-04-04T09:09:43.040Z,278.56
2019-04-04T09:11:13.026Z,278.54
2019-04-04T09:12:41.828Z,278.51
2019-04-04T09:14:11.428Z,278.53
2019-04-04T09:15:41.115Z,278.56
2019-04-04T09:17:09.987Z,278.54
2019-04-04T09:18:38.705Z,278.53
2019-04-04T09:20:09.614Z,278.53
2019-04-04T09:21:40.069Z,278.56
2019-04-04T09:23:09.892Z,278.61
2019-04-04T09:24:41.604Z,278.6
2019-04-04T09:26:12.533Z,278.64
2019-04-04T09:27:42.338Z,278.65
2019-04-04T09:29:11.586Z,278.65
2019-04-04T09:30:40.705Z,278.65
2019-04-04T09:32:10.232Z,278.72
2019-04-04T09:33:39.488Z,278.74
2019-04-04T09:35:08.626Z,278.78
2019-04-04T09:36:37.746Z,278.82
2019-04-04T09:38:07.275Z,278.87
2019-04-04T09:39:37.025Z,278.87
2019-04-04T09:41:13.989Z,278.85
2019-04-04T09:42:42.867Z,278.87
2019-04-04T09:44:11.668Z,278.9
2019-04-04T09:45:40.592Z,278.91
2019-04-04T09:47:12.061Z,278.86
2019-04-04T09:48:41.112Z,278.89
2019-04-04T09:50:10.387Z,278.87
2019-04-04T09:51:39.108Z,278.9
2019-04-04T09:53:07.906Z,278.9
2019-04-04T09:54:37.025Z,278.92
2019-04-04T09:56:05.988Z,278.95
2019-04-04T09:57:34.712Z,278.96
2019-04-04T09:59:04.389Z,278.99
2019-04-04T10:00:33.107Z,278.96
2019-04-04T10:02:02.872Z,279
2019-04-04T10:03:31.829Z,278.98
2019-04-04T10:05:00.553Z,278.96
2019-04-04T10:06:29.266Z,279.02
2019-04-04T10:07:58.147Z,279.03
2019-04-04T10:09:27.189Z,279.05
2019-04-04T10:10:55.909Z,279.06
2019-04-04T10:12:25.025Z,279.07
2019-04-04T10:13:55.684Z,279.03
2019-04-04T10:15:25.187Z,279.03
2019-04-04T10:16:53.909Z,279.03
2019-04-04T10:18:23.588Z,278.99
2019-04-04T10:19:52.306Z,278.95
2019-04-04T10:21:21.032Z,278.93
2019-04-04T10:22:49.992Z,278.93
2019-04-04T10:24:19.432Z,278.93
2019-04-04T10:25:49.062Z,278.91
2019-04-04T10:27:17.829Z,278.97
2019-04-04T10:28:46.628Z,279.02
2019-04-04T10:30:15.478Z,279.05
2019-04-04T10:31:44.466Z,279.14
2019-04-04T10:33:13.269Z,279.17
2019-04-04T10:34:42.068Z,279.21
2019-04-04T10:36:10.784Z,279.2
2019-04-04T10:37:39.913Z,279.2
2019-04-04T10:39:08.708Z,279.18
2019-04-04T10:40:37.426Z,279.2
2019-04-04T10:42:06.145Z,279.08
2019-04-04T10:43:35.031Z,279.07
2019-04-04T10:45:05.188Z,279.08
2019-04-04T10:46:33.985Z,279.12
2019-04-04T10:48:02.787Z,279.2
2019-04-04T10:49:32.464Z,279.22
2019-04-04T10:51:01.188Z,279.24
2019-04-04T10:52:30.785Z,279.21
2019-04-04T10:53:59.673Z,279.18
2019-04-04T10:55:28.473Z,279.18
2019-04-04T10:56:57.186Z,279.2
2019-04-04T10:58:26.786Z,279.25
2019-04-04T10:59:55.663Z,279.26
2019-04-04T11:01:24.706Z,279.25
2019-04-04T11:02:53.426Z,279.25
2019-04-04T11:04:22.227Z,279.29
2019-04-04T11:05:50.946Z,279.26
2019-04-04T11:07:19.671Z,279.23
2019-04-04T11:08:49.274Z,279.23
2019-04-04T11:10:17.986Z,279.25
2019-04-04T11:11:47.427Z,279.25
2019-04-04T11:13:17.105Z,279.32
2019-04-04T11:14:46.625Z,279.28
2019-04-04T11:16:15.345Z,279.3
2019-04-04T16:30:45.344Z,279.27
2019-04-04T16:31:57.986Z,279.25
2019-04-04T16:32:14.067Z,279.25
2019-04-04T16:33:26.784Z,279.23
2019-04-04T16:33:42.783Z,279.23
2019-04-04T16:34:57.699Z,279.26
2019-04-04T16:35:11.590Z,279.28
2019-04-04T16:36:26.461Z,279.26
2019-04-04T16:36:40.785Z,279.26
2019-04-04T16:37:55.186Z,279.24
2019-04-04T16:38:10.545Z,279.24
2019-04-04T16:39:23.907Z,279.21
2019-04-04T16:39:40.549Z,279.21
2019-04-04T16:40:52.625Z,279.2
2019-04-04T16:41:14.265Z,279.2
2019-04-04T16:42:22.235Z,279.2
2019-04-04T16:42:43.507Z,279.2
2019-04-04T16:43:54.627Z,279.2
2019-04-04T16:44:12.627Z,279.2
2019-04-04T16:45:23.344Z,279.2
2019-04-04T16:45:41.505Z,279.2
2019-04-04T16:46:52.071Z,279.2
2019-04-04T16:47:10.229Z,279.2
2019-04-04T16:48:20.787Z,279.2
2019-04-04T16:48:40.950Z,279.2
2019-04-04T16:49:49.825Z,279.19
2019-04-04T16:50:11.504Z,279.19
2019-04-04T16:51:21.108Z,279.19
2019-04-04T16:51:40.942Z,279.2
2019-04-04T16:52:50.868Z,279.19
2019-04-04T16:53:09.825Z,279.19
2019-04-04T16:54:20.342Z,279.2
2019-04-04T16:54:38.664Z,279.2
2019-04-04T16:55:49.109Z,279.2
2019-04-04T16:56:09.271Z,279.21
2019-04-04T16:57:17.829Z,279.21
2019-04-04T16:57:37.988Z,279.22
2019-04-04T16:58:47.435Z,279.21
2019-04-04T16:59:06.869Z,279.21
2019-04-04T17:00:17.267Z,279.2
2019-04-04T17:00:37.344Z,279.2
2019-04-04T17:01:45.992Z,279.19
2019-04-04T17:02:07.021Z,279.2
2019-04-04T17:03:15.345Z,279.18
2019-04-04T17:03:35.824Z,279.18
2019-04-04T17:04:44.224Z,279.18
2019-04-04T17:05:04.943Z,279.2
2019-04-04T17:06:13.826Z,279.2
2019-04-04T17:06:33.983Z,279.2
2019-04-04T17:07:42.543Z,279.17
2019-04-04T17:08:02.706Z,279.17
2019-04-04T17:09:12.145Z,279.17
2019-04-04T17:09:31.501Z,279.16
2019-04-04T17:10:40.944Z,279.14
2019-04-04T17:11:01.342Z,279.14
2019-04-04T17:12:19.830Z,279.13
2019-04-04T17:12:30.069Z,279.13
2019-04-04T17:13:49.437Z,279.13
2019-04-04T17:13:59.022Z,279.13
2019-04-04T17:15:18.225Z,279.12
2019-04-04T17:15:27.823Z,279.12
2019-04-04T17:16:47.826Z,279.1
2019-04-04T17:16:56.544Z,279.1
2019-04-04T17:18:17.187Z,279.1
2019-04-04T17:18:26.265Z,279.1
2019-04-04T17:19:45.987Z,279.1
2019-04-04T17:19:55.282Z,279.11
2019-04-04T17:21:15.030Z,279.11
2019-04-04T17:21:25.103Z,279.11
2019-04-04T17:22:45.026Z,279.09
2019-04-04T17:22:53.823Z,279.09
2019-04-04T17:24:14.627Z,279.08
2019-04-04T17:24:22.630Z,279.08
2019-04-04T17:25:43.425Z,279.07
2019-04-04T17:25:51.583Z,279.07
2019-04-04T17:27:12.145Z,279.06
2019-04-04T17:27:20.305Z,279.07
2019-04-04T17:28:41.424Z,279.05
2019-04-04T17:28:50.120Z,279.05
2019-04-04T17:30:10.499Z,279.08
2019-04-04T17:30:18.945Z,279.08
2019-04-04T17:31:41.004Z,279.06
2019-04-04T17:31:48.546Z,279.06
2019-04-04T17:33:10.788Z,279.07
2019-04-04T17:33:18.133Z,279.07
2019-04-04T17:34:40.306Z,279.08
2019-04-04T17:34:48.709Z,279.08
2019-04-04T17:36:09.909Z,279.09
2019-04-04T17:36:20.370Z,279.09
2019-04-04T17:37:40.181Z,279.08
2019-04-04T17:37:51.997Z,279.08
2019-04-04T17:39:10.157Z,279.1
2019-04-04T17:39:21.985Z,279.1
2019-04-04T17:40:40.162Z,279.11
2019-04-04T17:40:51.124Z,279.12
2019-04-04T17:42:09.558Z,279.11
2019-04-04T17:42:33.626Z,279.11
2019-04-04T17:43:38.544Z,279.1
2019-04-04T17:44:05.328Z,279.1
2019-04-04T17:45:08.161Z,279.1
2019-04-04T17:45:34.618Z,279.1
2019-04-04T17:46:37.717Z,279.09
2019-04-04T17:47:04.328Z,279.08
2019-04-04T17:48:06.622Z,279.09
2019-04-04T17:48:36.794Z,279.1
2019-04-04T17:49:36.785Z,279.09
2019-04-04T17:50:06.200Z,279.08
2019-04-04T17:51:06.347Z,279.08
2019-04-04T17:51:35.356Z,279.07
2019-04-04T17:52:38.083Z,279.06
2019-04-04T17:53:04.383Z,279.05
2019-04-04T17:54:08.077Z,279.04
2019-04-04T17:54:33.513Z,279.04
2019-04-04T17:55:37.348Z,279.03
2019-04-04T17:56:02.313Z,279.03
2019-04-04T17:57:07.302Z,279.03
2019-04-04T17:57:31.538Z,279.03
2019-04-04T17:58:38.304Z,279.04
2019-04-04T17:59:02.304Z,279.04
2019-04-04T18:00:08.788Z,279.04
2019-04-04T18:00:33.030Z,279.04
2019-04-04T18:01:39.505Z,279.03
2019-04-04T18:02:03.512Z,279.03
2019-04-04T18:03:09.984Z,279.04
2019-04-04T18:03:33.190Z,279.04
2019-04-04T18:04:48.046Z,279.03
2019-04-04T18:05:02.864Z,279.03
2019-04-04T18:06:17.587Z,279.02
2019-04-04T18:06:33.353Z,279.02
2019-04-04T18:07:46.305Z,279.05
2019-04-04T18:08:02.145Z,279.05
2019-04-04T18:09:15.022Z,279.06
2019-04-04T18:09:36.942Z,279.06
2019-04-04T18:10:44.707Z,279.04
2019-04-04T18:11:06.385Z,279.03
2019-04-04T18:12:13.584Z,279.02
2019-04-04T18:12:45.264Z,279.02
2019-04-04T18:13:42.306Z,279
2019-04-04T18:14:13.984Z,279
2019-04-04T18:15:11.105Z,278.99
2019-04-04T18:15:42.949Z,278.99
2019-04-04T18:16:41.586Z,278.98
2019-04-04T18:17:11.669Z,278.98
2019-04-04T18:18:10.706Z,278.97
2019-04-04T18:18:40.386Z,278.97
2019-04-04T18:19:41.713Z,278.97
2019-04-04T18:20:09.267Z,278.97
2019-04-04T18:21:10.787Z,278.97
2019-04-04T18:21:38.951Z,278.96
2019-04-04T18:22:39.508Z,278.95
2019-04-04T18:23:08.632Z,278.95
2019-04-04T18:24:10.228Z,278.93
2019-04-04T18:24:38.311Z,278.93
2019-04-04T18:25:39.829Z,278.93
2019-04-04T18:26:07.027Z,278.93
2019-04-04T18:27:08.868Z,278.94
2019-04-04T18:27:35.749Z,278.93
2019-04-04T18:28:39.430Z,278.93
2019-04-04T18:29:06.230Z,278.93
2019-04-04T18:30:08.389Z,278.92
2019-04-04T18:30:35.191Z,278.92
2019-04-04T18:31:37.112Z,278.92
2019-04-04T18:32:03.909Z,278.92
2019-04-04T18:33:06.387Z,278.92
2019-04-04T18:33:33.749Z,278.92
2019-04-04T18:34:36.389Z,278.92
2019-04-04T18:35:03.596Z,278.92
2019-04-04T18:36:05.753Z,278.92
2019-04-04T18:36:33.989Z,278.92
2019-04-04T18:37:35.524Z,278.94
2019-04-04T18:38:04.868Z,278.94
2019-04-04T18:39:04.311Z,278.95
2019-04-04T18:39:34.629Z,278.94
2019-04-04T18:40:33.991Z,278.95
2019-04-04T18:41:03.348Z,278.93
2019-04-04T18:42:05.349Z,278.94
2019-04-04T18:42:32.227Z,278.94
2019-04-04T18:43:34.150Z,278.94
2019-04-04T18:44:07.991Z,278.94
2019-04-04T18:45:03.590Z,278.94
2019-04-04T18:45:37.666Z,278.93
2019-04-04T18:46:32.314Z,278.93
2019-04-04T18:47:06.390Z,278.93
2019-04-04T18:48:01.111Z,278.94
2019-04-04T18:48:35.113Z,278.94
2019-04-04T18:49:29.916Z,278.93
2019-04-04T18:50:03.993Z,278.93
2019-04-04T18:50:58.890Z,278.91
2019-04-04T18:51:32.716Z,278.91
2019-04-04T18:52:27.752Z,278.91
2019-04-04T18:53:01.435Z,278.91
2019-04-04T18:53:57.516Z,278.91
2019-04-04T18:54:30.234Z,278.91
2019-04-04T18:55:27.200Z,278.91
2019-04-04T18:55:59.034Z,278.91
2019-04-04T18:56:57.676Z,278.92
2019-04-04T18:57:28.717Z,278.92
2019-04-04T18:58:27.439Z,278.91
2019-04-04T18:58:57.437Z,278.91
2019-04-04T18:59:57.120Z,278.9
2019-04-04T19:00:27.044Z,278.92
2019-04-04T19:01:27.763Z,278.9
2019-04-04T19:01:55.764Z,278.9
2019-04-04T19:02:56.561Z,278.9
2019-04-04T19:03:24.640Z,278.89
2019-04-04T19:04:25.286Z,278.89
2019-04-04T19:04:53.367Z,278.89
2019-04-04T19:05:54.090Z,278.91
2019-04-04T19:06:23.044Z,278.91
2019-04-04T19:07:22.808Z,278.92
2019-04-04T19:07:51.762Z,278.91
2019-04-04T19:08:51.526Z,278.91
2019-04-04T19:09:20.807Z,278.91
2019-04-04T19:10:20.488Z,278.91
2019-04-04T19:10:49.607Z,278.9
2019-04-04T19:11:50.485Z,278.89
2019-04-04T19:12:21.047Z,278.89
2019-04-04T19:13:19.579Z,278.89
2019-04-04T19:13:51.126Z,278.89
2019-04-04T19:14:48.648Z,278.89
2019-04-04T19:15:19.926Z,278.88
2019-04-04T19:16:18.251Z,278.89
2019-04-04T19:16:48.808Z,278.89
2019-04-04T19:17:47.930Z,278.9
2019-04-04T19:18:17.609Z,278.9
2019-04-04T19:19:16.890Z,278.9
2019-04-04T19:19:46.569Z,278.9
2019-04-04T19:20:45.848Z,278.89
2019-04-04T19:21:15.528Z,278.88
2019-04-04T19:22:14.738Z,278.87
2019-04-04T19:22:45.048Z,278.86
2019-04-04T19:23:54.252Z,278.84
2019-04-04T19:24:14.732Z,278.84
2019-04-04T19:25:23.050Z,278.81
2019-04-04T19:25:43.456Z,278.83
2019-04-04T19:26:51.773Z,278.83
2019-04-04T19:27:12.251Z,278.83
2019-04-04T19:28:20.491Z,278.81
2019-04-04T19:28:40.972Z,278.81
2019-04-04T19:29:49.291Z,278.81
2019-04-04T19:30:09.780Z,278.81
2019-04-04T19:31:18.020Z,278.8
2019-04-04T19:31:38.812Z,278.79
2019-04-04T19:32:46.825Z,278.79
2019-04-04T19:33:07.533Z,278.79
2019-04-04T19:34:17.534Z,278.8
2019-04-04T19:34:36.592Z,278.8
2019-04-04T19:35:47.214Z,278.79
2019-04-04T19:36:05.463Z,278.79
2019-04-04T19:37:16.814Z,278.79
2019-04-04T19:37:34.331Z,278.79
2019-04-04T19:38:45.532Z,278.78
2019-04-04T19:39:03.932Z,278.78
2019-04-04T19:40:14.257Z,278.8
2019-04-04T19:40:32.654Z,278.79
2019-04-04T19:41:43.217Z,278.79
2019-04-04T19:42:01.538Z,278.8
2019-04-04T19:43:22.974Z,278.79
2019-04-04T19:43:31.295Z,278.79
2019-04-04T19:44:58.335Z,278.78
2019-04-04T19:45:00.107Z,278.78
2019-04-04T19:46:36.432Z,278.76
2019-04-04T19:46:41.614Z,278.76
2019-04-04T19:48:06.647Z,278.75
2019-04-04T19:48:11.218Z,278.76
2019-04-04T19:49:35.459Z,278.74
2019-04-04T19:49:40.896Z,278.74
2019-04-04T19:51:04.176Z,278.73
2019-04-04T19:51:09.623Z,278.74
2019-04-04T19:52:32.898Z,278.72
2019-04-04T19:52:40.184Z,278.72
2019-04-04T19:54:01.788Z,278.73
2019-04-04T19:54:08.897Z,278.73
2019-04-04T19:55:30.498Z,278.73
2019-04-04T19:55:37.616Z,278.72
2019-04-04T19:56:59.311Z,278.69
2019-04-04T19:57:06.581Z,278.69
2019-04-04T19:58:28.268Z,278.65
2019-04-04T19:58:35.315Z,278.65
2019-04-04T19:59:58.102Z,278.64
2019-04-04T20:00:04.979Z,278.65
2019-04-04T20:01:26.830Z,278.65
2019-04-04T20:01:33.833Z,278.65
2019-04-04T20:02:55.697Z,278.65
2019-04-04T20:03:02.812Z,278.65
2019-04-04T20:04:24.417Z,278.61
2019-04-04T20:04:32.407Z,278.61
2019-04-04T20:05:53.624Z,278.6
2019-04-04T20:06:02.050Z,278.6
2019-04-04T20:07:22.398Z,278.6
2019-04-04T20:07:30.965Z,278.6
2019-04-04T20:08:53.482Z,278.6
2019-04-04T20:08:59.756Z,278.61
2019-04-04T20:10:22.649Z,278.6
2019-04-04T20:10:28.475Z,278.6
2019-04-04T20:11:51.436Z,278.59
2019-04-04T20:11:58.114Z,278.59
2019-04-04T20:13:30.145Z,278.58
2019-04-04T20:13:36.088Z,278.58
2019-04-04T20:15:00.234Z,278.59
2019-04-04T20:15:04.867Z,278.59
2019-04-04T20:16:29.908Z,278.58
2019-04-04T20:16:33.666Z,278.58
2019-04-04T20:17:58.628Z,278.58